sensor_id;sensor_type;location;lat;lon;timestamp;temperature;humidity
2621;DHT22;1320;48.128;11.592;2023-04-15T00:00:38;8.10;99.90
2621;DHT22;1320;48.128;11.592;2023-04-15T00:03:03;8.10;99.90
2621;DHT22;1320;48.128;11.592;2023-04-15T00:05:31;8.20;99.90
2621;DHT22;1320;48.128;11.592;2023-04-15T00:07:57;8.10;99.90
2621;DHT22;1320;48.128;11.592;2023-04-15T00:10:24;8.10;99.90
2621;DHT22;1320;48.128;11.592;2023-04-15T00:12:50;8.10;99.90
2621;DHT22;1320;48.128;11.592;2023-04-15T00:15:16;8.00;99.90
2621;DHT22;1320;48.128;11.592;2023-04-15T00:17:42;8.00;99.90
2621;DHT22;1320;48.128;11.592;2023-04-15T00:20:08;8.00;99.90
2621;DHT22;1320;48.128;11.592;2023-04-15T00:22:34;8.00;99.90
2621;DHT22;1320;48.128;11.592;2023-04-15T00:25:01;8.00;99.90
2621;DHT22;1320;48.128;11.592;2023-04-15T00:27:26;8.00;99.90
2621;DHT22;1320;48.128;11.592;2023-04-15T00:29:52;8.00;99.90
2621;DHT22;1320;48.128;11.592;2023-04-15T00:32:18;8.00;99.90
2621;DHT22;1320;48.128;11.592;2023-04-15T00:34:44;8.00;99.90
2621;DHT22;1320;48.128;11.592;2023-04-15T00:37:10;8.00;99.90
2621;DHT22;1320;48.128;11.592;2023-04-15T00:39:37;8.00;99.90
2621;DHT22;1320;48.128;11.592;2023-04-15T00:42:06;8.00;99.90
2621;DHT22;1320;48.128;11.592;2023-04-15T00:44:32;8.00;99.90
2621;DHT22;1320;48.128;11.592;2023-04-15T00:46:59;7.90;99.90
2621;DHT22;1320;48.128;11.592;2023-04-15T00:49:25;7.90;99.90
2621;DHT22;1320;48.128;11.592;2023-04-15T00:51:53;7.90;99.90
2621;DHT22;1320;48.128;11.592;2023-04-15T00:54:18;7.90;99.90
2621;DHT22;1320;48.128;11.592;2023-04-15T00:56:44;8.00;99.90
2621;DHT22;1320;48.128;11.592;2023-04-15T00:59:10;8.00;99.90
2621;DHT22;1320;48.128;11.592;2023-04-15T01:01:36;8.00;99.90
2621;DHT22;1320;48.128;11.592;2023-04-15T01:04:03;8.00;99.90
2621;DHT22;1320;48.128;11.592;2023-04-15T01:06:30;8.00;99.90
2621;DHT22;1320;48.128;11.592;2023-04-15T01:08:57;8.00;99.90
2621;DHT22;1320;48.128;11.592;2023-04-15T01:11:23;8.00;99.90
2621;DHT22;1320;48.128;11.592;2023-04-15T01:13:50;8.10;99.90
2621;DHT22;1320;48.128;11.592;2023-04-15T01:16:17;8.10;99.90
2621;DHT22;1320;48.128;11.592;2023-04-15T01:18:43;8.10;99.90
2621;DHT22;1320;48.128;11.592;2023-04-15T01:21:09;8.10;99.90
2621;DHT22;1320;48.128;11.592;2023-04-15T01:23:36;8.00;99.90
2621;DHT22;1320;48.128;11.592;2023-04-15T01:26:05;8.00;99.90
2621;DHT22;1320;48.128;11.592;2023-04-15T01:28:33;8.10;99.90
2621;DHT22;1320;48.128;11.592;2023-04-15T01:31:06;8.00;99.90
2621;DHT22;1320;48.128;11.592;2023-04-15T01:33:32;8.10;99.90
2621;DHT22;1320;48.128;11.592;2023-04-15T01:35:58;8.00;99.90
2621;DHT22;1320;48.128;11.592;2023-04-15T01:38:25;8.00;99.90
2621;DHT22;1320;48.128;11.592;2023-04-15T01:40:51;8.00;99.90
2621;DHT22;1320;48.128;11.592;2023-04-15T01:43:17;8.10;99.90
2621;DHT22;1320;48.128;11.592;2023-04-15T01:45:43;8.10;99.90
2621;DHT22;1320;48.128;11.592;2023-04-15T01:48:09;8.10;99.90
2621;DHT22;1320;48.128;11.592;2023-04-15T01:50:34;8.00;99.90
2621;DHT22;1320;48.128;11.592;2023-04-15T01:53:02;8.00;99.90
2621;DHT22;1320;48.128;11.592;2023-04-15T01:55:28;8.00;99.90
2621;DHT22;1320;48.128;11.592;2023-04-15T01:57:54;8.10;99.90
2621;DHT22;1320;48.128;11.592;2023-04-15T02:00:20;8.10;99.90
2621;DHT22;1320;48.128;11.592;2023-04-15T02:02:47;8.10;99.90
2621;DHT22;1320;48.128;11.592;2023-04-15T02:05:14;8.10;99.90
2621;DHT22;1320;48.128;11.592;2023-04-15T02:07:41;8.00;99.90
2621;DHT22;1320;48.128;11.592;2023-04-15T02:10:08;8.00;99.90
2621;DHT22;1320;48.128;11.592;2023-04-15T02:12:34;8.00;99.90
2621;DHT22;1320;48.128;11.592;2023-04-15T02:15:00;8.00;99.90
2621;DHT22;1320;48.128;11.592;2023-04-15T02:17:26;7.90;99.90
2621;DHT22;1320;48.128;11.592;2023-04-15T02:19:52;7.90;99.90
2621;DHT22;1320;48.128;11.592;2023-04-15T02:22:17;7.90;99.90
2621;DHT22;1320;48.128;11.592;2023-04-15T02:24:43;7.80;99.90
2621;DHT22;1320;48.128;11.592;2023-04-15T02:27:14;7.70;99.90
2621;DHT22;1320;48.128;11.592;2023-04-15T02:29:39;7.80;99.90
2621;DHT22;1320;48.128;11.592;2023-04-15T02:32:05;7.70;99.90
2621;DHT22;1320;48.128;11.592;2023-04-15T02:34:31;7.70;99.90
2621;DHT22;1320;48.128;11.592;2023-04-15T02:36:58;7.70;99.90
2621;DHT22;1320;48.128;11.592;2023-04-15T02:39:24;7.60;99.90
2621;DHT22;1320;48.128;11.592;2023-04-15T02:41:49;7.60;99.90
2621;DHT22;1320;48.128;11.592;2023-04-15T02:44:18;7.60;99.90
2621;DHT22;1320;48.128;11.592;2023-04-15T02:46:48;7.60;99.90
2621;DHT22;1320;48.128;11.592;2023-04-15T02:49:20;7.70;99.90
2621;DHT22;1320;48.128;11.592;2023-04-15T02:51:46;7.70;99.90
2621;DHT22;1320;48.128;11.592;2023-04-15T02:54:15;7.70;99.90
2621;DHT22;1320;48.128;11.592;2023-04-15T02:56:41;7.70;99.90
2621;DHT22;1320;48.128;11.592;2023-04-15T02:59:06;7.80;99.90
2621;DHT22;1320;48.128;11.592;2023-04-15T03:01:32;7.80;99.90
2621;DHT22;1320;48.128;11.592;2023-04-15T03:03:57;7.80;99.90
2621;DHT22;1320;48.128;11.592;2023-04-15T03:06:23;7.80;99.90
2621;DHT22;1320;48.128;11.592;2023-04-15T03:08:49;7.90;99.90
2621;DHT22;1320;48.128;11.592;2023-04-15T03:11:15;7.90;99.90
2621;DHT22;1320;48.128;11.592;2023-04-15T03:17:03;7.90;99.90
2621;DHT22;1320;48.128;11.592;2023-04-15T03:19:29;7.90;99.90
2621;DHT22;1320;48.128;11.592;2023-04-15T03:21:55;7.90;99.90
2621;DHT22;1320;48.128;11.592;2023-04-15T03:24:20;7.90;99.90
2621;DHT22;1320;48.128;11.592;2023-04-15T03:26:46;8.00;99.90
2621;DHT22;1320;48.128;11.592;2023-04-15T03:29:12;8.00;99.90
2621;DHT22;1320;48.128;11.592;2023-04-15T03:31:37;8.00;99.90
2621;DHT22;1320;48.128;11.592;2023-04-15T03:34:03;8.00;99.90
2621;DHT22;1320;48.128;11.592;2023-04-15T03:36:30;8.00;99.90
2621;DHT22;1320;48.128;11.592;2023-04-15T03:38:58;8.00;99.90
2621;DHT22;1320;48.128;11.592;2023-04-15T03:41:26;8.00;99.90
2621;DHT22;1320;48.128;11.592;2023-04-15T03:43:52;8.00;99.90
2621;DHT22;1320;48.128;11.592;2023-04-15T03:46:18;8.00;99.90
2621;DHT22;1320;48.128;11.592;2023-04-15T03:48:44;8.00;99.90
2621;DHT22;1320;48.128;11.592;2023-04-15T03:51:10;8.00;99.90
2621;DHT22;1320;48.128;11.592;2023-04-15T03:53:36;8.00;99.90
2621;DHT22;1320;48.128;11.592;2023-04-15T03:56:01;7.90;99.90
2621;DHT22;1320;48.128;11.592;2023-04-15T03:58:27;8.00;99.90
2621;DHT22;1320;48.128;11.592;2023-04-15T04:00:52;8.00;99.90
2621;DHT22;1320;48.128;11.592;2023-04-15T04:03:19;8.00;99.90
2621;DHT22;1320;48.128;11.592;2023-04-15T04:05:45;8.00;99.90
2621;DHT22;1320;48.128;11.592;2023-04-15T04:08:10;8.00;99.90
2621;DHT22;1320;48.128;11.592;2023-04-15T04:10:38;8.00;99.90
2621;DHT22;1320;48.128;11.592;2023-04-15T04:13:04;8.00;99.90
2621;DHT22;1320;48.128;11.592;2023-04-15T04:15:29;8.00;99.90
2621;DHT22;1320;48.128;11.592;2023-04-15T04:17:55;8.00;99.90
2621;DHT22;1320;48.128;11.592;2023-04-15T04:20:21;8.00;99.90
2621;DHT22;1320;48.128;11.592;2023-04-15T04:22:47;8.00;99.90
2621;DHT22;1320;48.128;11.592;2023-04-15T04:25:12;8.00;99.90
2621;DHT22;1320;48.128;11.592;2023-04-15T04:27:38;8.00;99.90
2621;DHT22;1320;48.128;11.592;2023-04-15T04:30:05;7.90;99.90
2621;DHT22;1320;48.128;11.592;2023-04-15T04:32:31;7.90;99.90
2621;DHT22;1320;48.128;11.592;2023-04-15T04:34:57;7.90;99.90
2621;DHT22;1320;48.128;11.592;2023-04-15T04:37:22;7.90;99.90
2621;DHT22;1320;48.128;11.592;2023-04-15T04:39:49;7.90;99.90
2621;DHT22;1320;48.128;11.592;2023-04-15T04:42:15;7.90;99.90
2621;DHT22;1320;48.128;11.592;2023-04-15T04:44:41;7.90;99.90
2621;DHT22;1320;48.128;11.592;2023-04-15T04:47:07;7.90;99.90
2621;DHT22;1320;48.128;11.592;2023-04-15T04:49:32;7.80;99.90
2621;DHT22;1320;48.128;11.592;2023-04-15T04:51:59;7.80;99.90
2621;DHT22;1320;48.128;11.592;2023-04-15T04:54:25;7.80;99.90
2621;DHT22;1320;48.128;11.592;2023-04-15T04:56:52;7.80;99.90
2621;DHT22;1320;48.128;11.592;2023-04-15T04:59:17;7.80;99.90
2621;DHT22;1320;48.128;11.592;2023-04-15T05:01:43;7.80;99.90
2621;DHT22;1320;48.128;11.592;2023-04-15T05:07:38;7.90;99.90
2621;DHT22;1320;48.128;11.592;2023-04-15T05:10:04;7.90;99.90
2621;DHT22;1320;48.128;11.592;2023-04-15T05:12:30;7.90;99.90
2621;DHT22;1320;48.128;11.592;2023-04-15T05:14:56;7.90;99.90
2621;DHT22;1320;48.128;11.592;2023-04-15T05:17:22;7.90;99.90
2621;DHT22;1320;48.128;11.592;2023-04-15T05:19:48;7.90;99.90
2621;DHT22;1320;48.128;11.592;2023-04-15T05:22:13;8.00;99.90
2621;DHT22;1320;48.128;11.592;2023-04-15T05:24:39;8.00;99.90
2621;DHT22;1320;48.128;11.592;2023-04-15T05:27:05;8.00;99.90
2621;DHT22;1320;48.128;11.592;2023-04-15T05:29:30;8.00;99.90
2621;DHT22;1320;48.128;11.592;2023-04-15T05:31:56;8.00;99.90
2621;DHT22;1320;48.128;11.592;2023-04-15T05:34:22;8.00;99.90
2621;DHT22;1320;48.128;11.592;2023-04-15T05:36:47;8.00;99.90
2621;DHT22;1320;48.128;11.592;2023-04-15T05:39:13;8.00;99.90
2621;DHT22;1320;48.128;11.592;2023-04-15T05:41:39;8.10;99.90
2621;DHT22;1320;48.128;11.592;2023-04-15T05:44:04;8.10;99.90
2621;DHT22;1320;48.128;11.592;2023-04-15T05:46:30;8.10;99.90
2621;DHT22;1320;48.128;11.592;2023-04-15T05:48:56;8.10;99.90
2621;DHT22;1320;48.128;11.592;2023-04-15T05:51:21;8.10;99.90
2621;DHT22;1320;48.128;11.592;2023-04-15T05:53:47;8.00;99.90
2621;DHT22;1320;48.128;11.592;2023-04-15T05:56:13;8.00;99.90
2621;DHT22;1320;48.128;11.592;2023-04-15T05:58:38;8.00;99.90
2621;DHT22;1320;48.128;11.592;2023-04-15T06:01:04;8.00;99.90
2621;DHT22;1320;48.128;11.592;2023-04-15T06:03:30;8.00;99.90
2621;DHT22;1320;48.128;11.592;2023-04-15T06:05:55;8.00;99.90
2621;DHT22;1320;48.128;11.592;2023-04-15T06:08:21;8.00;99.90
2621;DHT22;1320;48.128;11.592;2023-04-15T06:10:47;8.00;99.90
2621;DHT22;1320;48.128;11.592;2023-04-15T06:13:13;8.10;99.90
2621;DHT22;1320;48.128;11.592;2023-04-15T06:15:38;8.00;99.90
2621;DHT22;1320;48.128;11.592;2023-04-15T06:18:04;8.10;99.90
2621;DHT22;1320;48.128;11.592;2023-04-15T06:20:30;8.10;99.90
2621;DHT22;1320;48.128;11.592;2023-04-15T06:22:56;8.20;99.90
2621;DHT22;1320;48.128;11.592;2023-04-15T06:25:22;8.30;99.90
2621;DHT22;1320;48.128;11.592;2023-04-15T06:27:48;8.40;99.90
2621;DHT22;1320;48.128;11.592;2023-04-15T06:30:14;8.40;99.90
2621;DHT22;1320;48.128;11.592;2023-04-15T06:32:39;8.50;99.90
2621;DHT22;1320;48.128;11.592;2023-04-15T06:35:05;8.50;99.90
2621;DHT22;1320;48.128;11.592;2023-04-15T06:37:31;8.50;99.90
2621;DHT22;1320;48.128;11.592;2023-04-15T06:39:57;8.50;99.90
2621;DHT22;1320;48.128;11.592;2023-04-15T06:42:22;8.50;99.90
2621;DHT22;1320;48.128;11.592;2023-04-15T06:44:48;8.50;99.90
2621;DHT22;1320;48.128;11.592;2023-04-15T06:47:14;8.60;99.90
2621;DHT22;1320;48.128;11.592;2023-04-15T06:49:40;8.60;99.90
2621;DHT22;1320;48.128;11.592;2023-04-15T06:52:07;8.60;99.90
2621;DHT22;1320;48.128;11.592;2023-04-15T06:54:34;8.70;99.90
2621;DHT22;1320;48.128;11.592;2023-04-15T06:57:00;8.70;99.90
2621;DHT22;1320;48.128;11.592;2023-04-15T06:59:25;8.70;99.90
2621;DHT22;1320;48.128;11.592;2023-04-15T07:01:51;8.70;99.90
2621;DHT22;1320;48.128;11.592;2023-04-15T07:04:17;8.70;99.90
2621;DHT22;1320;48.128;11.592;2023-04-15T07:06:43;8.80;99.90
2621;DHT22;1320;48.128;11.592;2023-04-15T07:09:09;8.90;99.90
2621;DHT22;1320;48.128;11.592;2023-04-15T07:11:35;8.90;99.90
2621;DHT22;1320;48.128;11.592;2023-04-15T07:14:01;9.00;99.90
2621;DHT22;1320;48.128;11.592;2023-04-15T07:16:26;9.10;99.90
2621;DHT22;1320;48.128;11.592;2023-04-15T07:18:52;9.10;99.90
2621;DHT22;1320;48.128;11.592;2023-04-15T07:21:18;9.20;99.90
2621;DHT22;1320;48.128;11.592;2023-04-15T07:23:44;9.40;99.90
2621;DHT22;1320;48.128;11.592;2023-04-15T07:26:09;9.50;99.90
2621;DHT22;1320;48.128;11.592;2023-04-15T07:28:35;9.70;99.90
2621;DHT22;1320;48.128;11.592;2023-04-15T07:31:01;9.80;99.90
2621;DHT22;1320;48.128;11.592;2023-04-15T07:33:26;9.80;99.90
2621;DHT22;1320;48.128;11.592;2023-04-15T07:35:52;10.00;99.90
2621;DHT22;1320;48.128;11.592;2023-04-15T07:38:18;10.10;99.90
2621;DHT22;1320;48.128;11.592;2023-04-15T07:40:44;10.20;99.90
2621;DHT22;1320;48.128;11.592;2023-04-15T07:43:10;10.20;99.90
2621;DHT22;1320;48.128;11.592;2023-04-15T07:45:37;10.20;99.90
2621;DHT22;1320;48.128;11.592;2023-04-15T07:48:03;10.10;99.90
2621;DHT22;1320;48.128;11.592;2023-04-15T07:50:29;10.20;99.90
2621;DHT22;1320;48.128;11.592;2023-04-15T07:52:55;10.30;99.90
2621;DHT22;1320;48.128;11.592;2023-04-15T07:55:21;10.40;99.90
2621;DHT22;1320;48.128;11.592;2023-04-15T07:57:48;10.60;99.90
2621;DHT22;1320;48.128;11.592;2023-04-15T08:00:14;10.80;99.90
2621;DHT22;1320;48.128;11.592;2023-04-15T08:02:41;10.90;99.90
2621;DHT22;1320;48.128;11.592;2023-04-15T08:05:08;11.20;99.90
2621;DHT22;1320;48.128;11.592;2023-04-15T08:07:35;11.40;99.10
2621;DHT22;1320;48.128;11.592;2023-04-15T08:10:01;11.60;98.50
2621;DHT22;1320;48.128;11.592;2023-04-15T08:12:27;11.70;98.70
2621;DHT22;1320;48.128;11.592;2023-04-15T08:14:54;11.80;98.00
2621;DHT22;1320;48.128;11.592;2023-04-15T08:17:19;11.90;98.60
2621;DHT22;1320;48.128;11.592;2023-04-15T08:19:45;12.00;97.80
2621;DHT22;1320;48.128;11.592;2023-04-15T08:22:12;12.10;98.10
2621;DHT22;1320;48.128;11.592;2023-04-15T08:24:38;12.20;97.90
2621;DHT22;1320;48.128;11.592;2023-04-15T08:27:04;12.30;97.60
2621;DHT22;1320;48.128;11.592;2023-04-15T08:29:31;12.40;97.70
2621;DHT22;1320;48.128;11.592;2023-04-15T08:31:58;12.50;97.90
2621;DHT22;1320;48.128;11.592;2023-04-15T08:34:25;12.50;96.40
2621;DHT22;1320;48.128;11.592;2023-04-15T08:36:51;12.30;97.20
2621;DHT22;1320;48.128;11.592;2023-04-15T08:39:17;12.20;97.20
2621;DHT22;1320;48.128;11.592;2023-04-15T08:41:49;12.20;97.40
2621;DHT22;1320;48.128;11.592;2023-04-15T08:44:17;12.10;96.70
2621;DHT22;1320;48.128;11.592;2023-04-15T08:46:42;11.90;97.10
2621;DHT22;1320;48.128;11.592;2023-04-15T08:49:11;11.80;97.20
2621;DHT22;1320;48.128;11.592;2023-04-15T08:51:40;11.70;97.30
2621;DHT22;1320;48.128;11.592;2023-04-15T08:54:07;11.60;97.60
2621;DHT22;1320;48.128;11.592;2023-04-15T08:56:34;11.60;97.90
2621;DHT22;1320;48.128;11.592;2023-04-15T08:59:00;11.60;98.20
2621;DHT22;1320;48.128;11.592;2023-04-15T09:01:26;11.60;98.40
2621;DHT22;1320;48.128;11.592;2023-04-15T09:03:52;11.70;98.20
2621;DHT22;1320;48.128;11.592;2023-04-15T09:06:20;11.80;97.80
2621;DHT22;1320;48.128;11.592;2023-04-15T09:08:46;11.90;97.20
2621;DHT22;1320;48.128;11.592;2023-04-15T09:11:12;11.80;97.30
2621;DHT22;1320;48.128;11.592;2023-04-15T09:13:38;11.80;98.00
2621;DHT22;1320;48.128;11.592;2023-04-15T09:16:05;11.80;97.80
2621;DHT22;1320;48.128;11.592;2023-04-15T09:18:33;11.90;97.30
2621;DHT22;1320;48.128;11.592;2023-04-15T09:23:31;11.90;97.80
2621;DHT22;1320;48.128;11.592;2023-04-15T09:25:58;12.00;97.70
2621;DHT22;1320;48.128;11.592;2023-04-15T09:28:24;12.10;97.30
2621;DHT22;1320;48.128;11.592;2023-04-15T09:30:54;12.30;97.50
2621;DHT22;1320;48.128;11.592;2023-04-15T09:33:21;12.30;97.10
2621;DHT22;1320;48.128;11.592;2023-04-15T09:36:04;12.40;97.40
2621;DHT22;1320;48.128;11.592;2023-04-15T09:38:30;12.50;97.80
2621;DHT22;1320;48.128;11.592;2023-04-15T09:40:57;12.50;97.00
2621;DHT22;1320;48.128;11.592;2023-04-15T09:43:37;12.50;96.60
2621;DHT22;1320;48.128;11.592;2023-04-15T09:46:06;12.50;97.20
2621;DHT22;1320;48.128;11.592;2023-04-15T09:48:31;12.60;97.40
2621;DHT22;1320;48.128;11.592;2023-04-15T09:50:58;12.60;96.80
2621;DHT22;1320;48.128;11.592;2023-04-15T09:53:25;12.70;96.60
2621;DHT22;1320;48.128;11.592;2023-04-15T09:55:55;12.60;96.60
2621;DHT22;1320;48.128;11.592;2023-04-15T10:00:49;12.50;97.40
2621;DHT22;1320;48.128;11.592;2023-04-15T10:06:38;12.40;96.90
2621;DHT22;1320;48.128;11.592;2023-04-15T10:09:05;12.30;96.80
2621;DHT22;1320;48.128;11.592;2023-04-15T10:11:32;12.20;96.90
2621;DHT22;1320;48.128;11.592;2023-04-15T10:13:59;12.10;97.00
2621;DHT22;1320;48.128;11.592;2023-04-15T10:16:26;12.10;97.60
2621;DHT22;1320;48.128;11.592;2023-04-15T10:18:56;12.10;97.30
2621;DHT22;1320;48.128;11.592;2023-04-15T10:21:23;12.10;96.60
2621;DHT22;1320;48.128;11.592;2023-04-15T10:23:49;12.00;97.20
2621;DHT22;1320;48.128;11.592;2023-04-15T10:26:15;12.00;96.90
2621;DHT22;1320;48.128;11.592;2023-04-15T10:28:45;12.00;97.40
2621;DHT22;1320;48.128;11.592;2023-04-15T10:31:14;12.10;96.90
2621;DHT22;1320;48.128;11.592;2023-04-15T10:33:41;12.10;97.30
2621;DHT22;1320;48.128;11.592;2023-04-15T10:36:07;12.10;97.50
2621;DHT22;1320;48.128;11.592;2023-04-15T10:43:49;12.30;96.30
2621;DHT22;1320;48.128;11.592;2023-04-15T10:46:43;12.30;96.30
2621;DHT22;1320;48.128;11.592;2023-04-15T10:49:17;12.20;97.00
2621;DHT22;1320;48.128;11.592;2023-04-15T10:51:58;12.20;96.80
2621;DHT22;1320;48.128;11.592;2023-04-15T11:02:58;12.60;97.40
2621;DHT22;1320;48.128;11.592;2023-04-15T11:08:04;12.90;96.00
2621;DHT22;1320;48.128;11.592;2023-04-15T11:13:02;12.70;96.20
2621;DHT22;1320;48.128;11.592;2023-04-15T11:15:32;12.70;96.40
2621;DHT22;1320;48.128;11.592;2023-04-15T11:20:34;12.70;96.20
2621;DHT22;1320;48.128;11.592;2023-04-15T11:22:59;12.80;95.80
2621;DHT22;1320;48.128;11.592;2023-04-15T11:25:30;12.70;96.10
2621;DHT22;1320;48.128;11.592;2023-04-15T11:28:00;12.70;96.20
2621;DHT22;1320;48.128;11.592;2023-04-15T11:30:28;12.80;96.30
2621;DHT22;1320;48.128;11.592;2023-04-15T11:32:58;12.80;96.10
2621;DHT22;1320;48.128;11.592;2023-04-15T11:35:24;12.70;96.10
2621;DHT22;1320;48.128;11.592;2023-04-15T11:37:50;12.60;96.20
2621;DHT22;1320;48.128;11.592;2023-04-15T11:40:21;12.60;96.40
2621;DHT22;1320;48.128;11.592;2023-04-15T11:43:06;12.50;96.80
2621;DHT22;1320;48.128;11.592;2023-04-15T11:45:32;12.40;97.30
2621;DHT22;1320;48.128;11.592;2023-04-15T11:48:06;12.30;97.00
2621;DHT22;1320;48.128;11.592;2023-04-15T11:50:32;12.20;97.80
2621;DHT22;1320;48.128;11.592;2023-04-15T11:52:59;12.20;97.70
2621;DHT22;1320;48.128;11.592;2023-04-15T11:55:27;12.20;98.10
2621;DHT22;1320;48.128;11.592;2023-04-15T12:00:38;12.20;98.00
2621;DHT22;1320;48.128;11.592;2023-04-15T12:03:35;12.10;98.00
2621;DHT22;1320;48.128;11.592;2023-04-15T12:08:49;12.00;98.00
2621;DHT22;1320;48.128;11.592;2023-04-15T12:12:03;12.00;97.80
2621;DHT22;1320;48.128;11.592;2023-04-15T12:16:37;12.10;97.50
2621;DHT22;1320;48.128;11.592;2023-04-15T12:19:09;12.10;97.30
2621;DHT22;1320;48.128;11.592;2023-04-15T12:21:38;12.00;97.20
2621;DHT22;1320;48.128;11.592;2023-04-15T12:24:07;12.00;97.10
2621;DHT22;1320;48.128;11.592;2023-04-15T12:26:34;12.00;97.20
2621;DHT22;1320;48.128;11.592;2023-04-15T12:29:05;12.00;97.00
2621;DHT22;1320;48.128;11.592;2023-04-15T12:31:32;12.10;96.90
2621;DHT22;1320;48.128;11.592;2023-04-15T12:33:58;12.10;97.20
2621;DHT22;1320;48.128;11.592;2023-04-15T12:36:26;12.10;96.30
2621;DHT22;1320;48.128;11.592;2023-04-15T12:38:53;12.10;96.10
2621;DHT22;1320;48.128;11.592;2023-04-15T12:41:20;12.00;95.70
2621;DHT22;1320;48.128;11.592;2023-04-15T12:43:46;12.00;95.80
2621;DHT22;1320;48.128;11.592;2023-04-15T12:46:15;11.90;96.00
2621;DHT22;1320;48.128;11.592;2023-04-15T12:48:41;11.90;95.10
2621;DHT22;1320;48.128;11.592;2023-04-15T12:51:06;11.90;94.80
2621;DHT22;1320;48.128;11.592;2023-04-15T12:53:32;11.90;94.70
2621;DHT22;1320;48.128;11.592;2023-04-15T12:55:58;11.90;93.90
2621;DHT22;1320;48.128;11.592;2023-04-15T12:58:24;11.90;94.20
2621;DHT22;1320;48.128;11.592;2023-04-15T13:00:50;11.90;94.20
2621;DHT22;1320;48.128;11.592;2023-04-15T13:03:16;11.90;94.80
2621;DHT22;1320;48.128;11.592;2023-04-15T13:05:42;12.00;94.20
2621;DHT22;1320;48.128;11.592;2023-04-15T13:08:08;12.00;93.80
2621;DHT22;1320;48.128;11.592;2023-04-15T13:10:34;12.00;93.70
2621;DHT22;1320;48.128;11.592;2023-04-15T13:13:04;12.00;93.90
2621;DHT22;1320;48.128;11.592;2023-04-15T13:15:30;12.10;93.60
2621;DHT22;1320;48.128;11.592;2023-04-15T13:17:55;12.10;93.30
2621;DHT22;1320;48.128;11.592;2023-04-15T13:20:21;12.00;93.60
2621;DHT22;1320;48.128;11.592;2023-04-15T13:22:47;12.10;93.20
2621;DHT22;1320;48.128;11.592;2023-04-15T13:25:13;12.10;93.50
2621;DHT22;1320;48.128;11.592;2023-04-15T13:27:38;12.10;93.80
2621;DHT22;1320;48.128;11.592;2023-04-15T13:30:05;12.10;93.40
2621;DHT22;1320;48.128;11.592;2023-04-15T13:32:31;12.10;94.00
2621;DHT22;1320;48.128;11.592;2023-04-15T13:34:56;12.10;94.20
2621;DHT22;1320;48.128;11.592;2023-04-15T13:37:26;12.10;94.40
2621;DHT22;1320;48.128;11.592;2023-04-15T13:39:52;12.10;94.60
2621;DHT22;1320;48.128;11.592;2023-04-15T13:42:18;12.10;94.80
2621;DHT22;1320;48.128;11.592;2023-04-15T13:44:44;12.10;94.60
2621;DHT22;1320;48.128;11.592;2023-04-15T13:47:10;12.10;94.30
2621;DHT22;1320;48.128;11.592;2023-04-15T13:49:36;12.10;94.70
2621;DHT22;1320;48.128;11.592;2023-04-15T13:52:01;12.00;94.60
2621;DHT22;1320;48.128;11.592;2023-04-15T13:57:49;11.80;95.70
2621;DHT22;1320;48.128;11.592;2023-04-15T14:00:15;11.70;96.10
2621;DHT22;1320;48.128;11.592;2023-04-15T14:02:41;11.70;96.20
2621;DHT22;1320;48.128;11.592;2023-04-15T14:05:07;11.60;96.60
2621;DHT22;1320;48.128;11.592;2023-04-15T14:07:33;11.60;97.00
2621;DHT22;1320;48.128;11.592;2023-04-15T14:09:59;11.60;96.50
2621;DHT22;1320;48.128;11.592;2023-04-15T14:12:25;11.50;96.00
2621;DHT22;1320;48.128;11.592;2023-04-15T14:14:50;11.40;95.60
2621;DHT22;1320;48.128;11.592;2023-04-15T14:17:16;11.30;96.30
2621;DHT22;1320;48.128;11.592;2023-04-15T14:19:42;11.30;96.10
2621;DHT22;1320;48.128;11.592;2023-04-15T14:22:07;11.30;95.70
2621;DHT22;1320;48.128;11.592;2023-04-15T14:24:33;11.40;95.90
2621;DHT22;1320;48.128;11.592;2023-04-15T14:26:59;11.40;95.80
2621;DHT22;1320;48.128;11.592;2023-04-15T14:29:26;11.40;95.10
2621;DHT22;1320;48.128;11.592;2023-04-15T14:31:52;11.40;94.30
2621;DHT22;1320;48.128;11.592;2023-04-15T14:34:18;11.40;94.90
2621;DHT22;1320;48.128;11.592;2023-04-15T14:36:43;11.40;95.30
2621;DHT22;1320;48.128;11.592;2023-04-15T14:39:09;11.40;95.40
2621;DHT22;1320;48.128;11.592;2023-04-15T14:41:35;11.40;95.00
2621;DHT22;1320;48.128;11.592;2023-04-15T14:44:02;11.50;95.10
2621;DHT22;1320;48.128;11.592;2023-04-15T14:46:27;11.50;95.20
2621;DHT22;1320;48.128;11.592;2023-04-15T14:48:53;11.60;95.20
2621;DHT22;1320;48.128;11.592;2023-04-15T14:51:19;11.60;95.00
2621;DHT22;1320;48.128;11.592;2023-04-15T14:53:45;11.60;95.30
2621;DHT22;1320;48.128;11.592;2023-04-15T14:56:10;11.70;95.60
2621;DHT22;1320;48.128;11.592;2023-04-15T14:58:36;11.70;95.50
2621;DHT22;1320;48.128;11.592;2023-04-15T15:01:05;11.70;95.20
2621;DHT22;1320;48.128;11.592;2023-04-15T15:03:31;11.70;95.60
2621;DHT22;1320;48.128;11.592;2023-04-15T15:05:58;11.70;95.70
2621;DHT22;1320;48.128;11.592;2023-04-15T15:08:23;11.80;95.90
2621;DHT22;1320;48.128;11.592;2023-04-15T15:10:49;11.80;96.00
2621;DHT22;1320;48.128;11.592;2023-04-15T15:13:16;11.80;96.50
2621;DHT22;1320;48.128;11.592;2023-04-15T15:15:42;11.70;97.10
2621;DHT22;1320;48.128;11.592;2023-04-15T15:18:09;11.70;98.10
2621;DHT22;1320;48.128;11.592;2023-04-15T15:20:35;11.50;98.10
2621;DHT22;1320;48.128;11.592;2023-04-15T15:23:00;11.50;98.20
2621;DHT22;1320;48.128;11.592;2023-04-15T15:25:26;11.40;98.70
2621;DHT22;1320;48.128;11.592;2023-04-15T15:27:52;11.40;99.10
2621;DHT22;1320;48.128;11.592;2023-04-15T15:30:18;11.20;99.70
2621;DHT22;1320;48.128;11.592;2023-04-15T15:32:43;11.10;99.70
2621;DHT22;1320;48.128;11.592;2023-04-15T15:35:09;11.00;99.90
2621;DHT22;1320;48.128;11.592;2023-04-15T15:37:36;10.90;99.90
2621;DHT22;1320;48.128;11.592;2023-04-15T15:40:05;10.80;99.90
2621;DHT22;1320;48.128;11.592;2023-04-15T15:42:32;10.60;99.90
2621;DHT22;1320;48.128;11.592;2023-04-15T15:44:58;10.40;99.90
2621;DHT22;1320;48.128;11.592;2023-04-15T15:47:23;10.30;99.90
2621;DHT22;1320;48.128;11.592;2023-04-15T15:49:51;10.10;99.90
2621;DHT22;1320;48.128;11.592;2023-04-15T15:52:17;10.00;99.90
2621;DHT22;1320;48.128;11.592;2023-04-15T15:54:42;9.90;99.90
2621;DHT22;1320;48.128;11.592;2023-04-15T15:57:08;9.90;99.90
2621;DHT22;1320;48.128;11.592;2023-04-15T15:59:34;9.80;99.90
2621;DHT22;1320;48.128;11.592;2023-04-15T16:02:00;9.80;99.90
2621;DHT22;1320;48.128;11.592;2023-04-15T16:04:26;9.80;99.90
2621;DHT22;1320;48.128;11.592;2023-04-15T16:06:52;9.70;99.90
2621;DHT22;1320;48.128;11.592;2023-04-15T16:09:18;9.70;99.90
2621;DHT22;1320;48.128;11.592;2023-04-15T16:11:44;9.70;99.90
2621;DHT22;1320;48.128;11.592;2023-04-15T16:14:10;9.70;99.90
2621;DHT22;1320;48.128;11.592;2023-04-15T16:16:38;9.70;99.90
2621;DHT22;1320;48.128;11.592;2023-04-15T16:19:04;9.80;99.90
2621;DHT22;1320;48.128;11.592;2023-04-15T16:21:30;9.80;99.90
2621;DHT22;1320;48.128;11.592;2023-04-15T16:23:56;9.80;99.90
2621;DHT22;1320;48.128;11.592;2023-04-15T16:26:22;9.90;99.90
2621;DHT22;1320;48.128;11.592;2023-04-15T16:28:48;9.80;99.90
2621;DHT22;1320;48.128;11.592;2023-04-15T16:31:13;9.80;99.90
2621;DHT22;1320;48.128;11.592;2023-04-15T16:33:39;9.70;99.90
2621;DHT22;1320;48.128;11.592;2023-04-15T16:36:05;9.70;99.90
2621;DHT22;1320;48.128;11.592;2023-04-15T16:38:31;9.60;99.90